Time;durP1;ratioP1;P1;durP2;ratioP2;P2;SDS_P1;SDS_P2;PMS_P1;PMS_P2;Temp;Humidity;BMP_temperature;BMP_pressure;BME280_temperature;BME280_humidity;BME280_pressure;Samples;Min_cycle;Max_cycle;Signal;HPM_P1;HPM_P2
2022/11/08 13:39:39;;;;;;;5.13;4.33;;;;;;;;;;6545265;28;20188;-92
2022/11/08 13:54:45;;;;;;;8.43;6.37;;;;;;;;;;6622914;28;20192;-92
2022/11/08 15:31:25;;;;;;;12.63;10.50;;;;;;;;;;6569704;28;20168;-96
2022/11/08 15:34:36;;;;;;;15.37;10.63;;;;;;;;;;6593510;28;20208;-96
2022/11/08 15:37:49;;;;;;;11.87;9.50;;;;;;;;;;6593699;28;20181;-96
2022/11/08 15:41:02;;;;;;;15.70;11.67;;;;;;;;;;6594709;28;20185;-96
2022/11/08 15:44:18;;;;;;;19.00;13.53;;;;;;;;;;6595931;28;20182;-96
2022/11/08 15:47:55;;;;;;;27.00;21.40;;;;;;;;;;6594139;28;20550;-96
2022/11/08 15:51:06;;;;;;;29.93;20.33;;;;;;;;;;6557851;28;20185;-96
2022/11/08 15:54:18;;;;;;;20.83;16.47;;;;;;;;;;6593402;28;20203;-95
2022/11/08 15:57:28;;;;;;;26.27;19.40;;;;;;;;;;6602896;28;20237;-95
2022/11/08 16:00:43;;;;;;;23.60;16.07;;;;;;;;;;6613094;28;20171;-95
2022/11/08 16:03:53;;;;;;;18.47;14.53;;;;;;;;;;6611722;28;20179;-96
2022/11/08 16:07:04;;;;;;;17.80;13.53;;;;;;;;;;6609732;28;20176;-96
2022/11/08 16:10:17;;;;;;;20.20;14.70;;;;;;;;;;6611033;28;20198;-96
2022/11/08 16:13:34;;;;;;;25.03;17.97;;;;;;;;;;6612533;28;20175;-96
2022/11/08 16:16:44;;;;;;;27.87;20.47;;;;;;;;;;6609389;28;20228;-96
2022/11/08 16:19:55;;;;;;;25.57;19.77;;;;;;;;;;6610758;28;20644;-96
2022/11/08 16:23:06;;;;;;;23.67;18.07;;;;;;;;;;6610441;28;20183;-96
2022/11/08 16:26:17;;;;;;;25.40;17.37;;;;;;;;;;6606873;28;20195;-96
2022/11/08 16:29:28;;;;;;;28.17;17.60;;;;;;;;;;6606902;28;20532;-95
2022/11/08 16:32:38;;;;;;;24.90;17.90;;;;;;;;;;6600234;28;20180;-96
2022/11/08 16:35:50;;;;;;;29.83;20.60;;;;;;;;;;6588152;28;20335;-96
2022/11/08 16:39:01;;;;;;;31.03;21.97;;;;;;;;;;6588477;28;20177;-96
2022/11/08 16:42:11;;;;;;;27.40;18.97;;;;;;;;;;6602722;28;20579;-96
2022/11/08 16:45:23;;;;;;;29.60;20.00;;;;;;;;;;6598697;28;20235;-96
2022/11/08 16:48:36;;;;;;;27.03;18.30;;;;;;;;;;6586746;28;20628;-96
2022/11/08 16:51:46;;;;;;;26.60;18.37;;;;;;;;;;6586769;28;20180;-96
2022/11/08 16:54:57;;;;;;;26.13;18.33;;;;;;;;;;6600593;28;20208;-96
2022/11/08 16:58:07;;;;;;;24.70;17.23;;;;;;;;;;6592382;28;20203;-96
2022/11/08 17:01:22;;;;;;;23.00;16.83;;;;;;;;;;6594723;28;20201;-96
2022/11/08 17:04:32;;;;;;;25.80;18.80;;;;;;;;;;6596524;28;20185;-96
2022/11/08 17:07:43;;;;;;;24.07;17.83;;;;;;;;;;6586360;28;20181;-96
2022/11/08 17:10:54;;;;;;;23.00;17.13;;;;;;;;;;6591401;28;20208;-96
2022/11/08 17:14:09;;;;;;;24.57;17.20;;;;;;;;;;6597890;28;20213;-96
2022/11/08 17:17:20;;;;;;;25.80;20.43;;;;;;;;;;6598509;28;20552;-96
2022/11/08 17:20:31;;;;;;;29.40;23.07;;;;;;;;;;6597771;28;20179;-96
2022/11/08 17:23:43;;;;;;;28.10;20.10;;;;;;;;;;6592801;28;20184;-96
2022/11/08 17:26:53;;;;;;;29.37;22.83;;;;;;;;;;6583044;28;20177;-96
2022/11/08 17:30:05;;;;;;;35.23;27.83;;;;;;;;;;6590564;28;20230;-96
2022/11/08 17:33:16;;;;;;;27.07;21.63;;;;;;;;;;6569155;28;20271;-96
2022/11/08 17:36:28;;;;;;;28.50;21.10;;;;;;;;;;6592384;28;20216;-96
2022/11/08 17:39:40;;;;;;;31.53;22.63;;;;;;;;;;6584870;28;20190;-96
2022/11/08 17:42:53;;;;;;;26.50;19.40;;;;;;;;;;6589363;28;20207;-96
2022/11/08 17:46:05;;;;;;;22.50;17.17;;;;;;;;;;6584592;28;20181;-96
2022/11/08 17:49:15;;;;;;;26.83;19.30;;;;;;;;;;6589813;28;20177;-96
2022/11/08 17:52:25;;;;;;;31.07;21.13;;;;;;;;;;6583993;28;20275;-96
2022/11/08 17:55:37;;;;;;;30.70;22.53;;;;;;;;;;6594190;28;20699;-96
2022/11/08 17:58:48;;;;;;;31.17;21.47;;;;;;;;;;6591632;28;20189;-96
2022/11/08 18:01:58;;;;;;;29.73;22.43;;;;;;;;;;6593348;28;20625;-96
2022/11/08 18:05:08;;;;;;;29.80;21.87;;;;;;;;;;6586880;28;20211;-96
2022/11/08 18:08:19;;;;;;;30.97;21.03;;;;;;;;;;6587629;28;20176;-96
2022/11/08 18:11:31;;;;;;;34.87;24.27;;;;;;;;;;6584540;28;20263;-96
2022/11/08 18:14:41;;;;;;;36.47;25.43;;;;;;;;;;6584742;28;20311;-96
2022/11/08 18:17:51;;;;;;;37.97;25.93;;;;;;;;;;6581127;28;20200;-96
2022/11/08 18:21:02;;;;;;;37.17;27.50;;;;;;;;;;6574283;28;20177;-96
2022/11/08 18:24:13;;;;;;;39.23;28.87;;;;;;;;;;6588894;28;20208;-96
2022/11/08 18:27:24;;;;;;;30.07;21.27;;;;;;;;;;6582613;28;20326;-96
2022/11/08 18:30:35;;;;;;;31.97;22.73;;;;;;;;;;6582407;28;20180;-96
2022/11/08 18:33:46;;;;;;;36.03;24.87;;;;;;;;;;6582162;28;20212;-96
2022/11/08 18:37:01;;;;;;;32.23;24.03;;;;;;;;;;6586172;28;20259;-96
2022/11/08 18:40:12;;;;;;;33.30;23.53;;;;;;;;;;6584888;28;20268;-96
2022/11/08 18:43:24;;;;;;;30.40;23.37;;;;;;;;;;6581086;28;20231;-96
2022/11/08 18:46:36;;;;;;;30.23;22.93;;;;;;;;;;6596661;28;20180;-96
2022/11/08 18:49:46;;;;;;;37.10;25.87;;;;;;;;;;6591840;28;20179;-96
2022/11/08 18:52:56;;;;;;;37.50;26.50;;;;;;;;;;6583365;28;20169;-96
2022/11/08 18:56:07;;;;;;;44.53;29.13;;;;;;;;;;6580782;28;20240;-96
2022/11/08 18:59:19;;;;;;;43.77;28.80;;;;;;;;;;6583836;28;20686;-96
2022/11/08 19:02:31;;;;;;;36.90;25.87;;;;;;;;;;6591514;28;20180;-96
2022/11/08 19:05:45;;;;;;;39.43;25.60;;;;;;;;;;6593025;28;20172;-96
2022/11/08 19:08:56;;;;;;;36.23;24.07;;;;;;;;;;6609257;28;20181;-96
2022/11/08 19:12:07;;;;;;;36.27;25.57;;;;;;;;;;6607943;28;20195;-96
2022/11/08 19:15:21;;;;;;;35.30;25.67;;;;;;;;;;6591534;28;20319;-96
2022/11/08 19:18:36;;;;;;;37.67;24.13;;;;;;;;;;6597616;28;21990;-96
2022/11/08 19:21:48;;;;;;;31.90;22.83;;;;;;;;;;6592344;28;20541;-96
2022/11/08 19:24:59;;;;;;;31.07;21.80;;;;;;;;;;6581579;28;20180;-96
2022/11/08 19:28:09;;;;;;;33.70;21.73;;;;;;;;;;6569785;28;20542;-96
2022/11/08 19:31:20;;;;;;;26.10;19.73;;;;;;;;;;6590797;28;20188;-96
2022/11/08 19:34:32;;;;;;;25.37;18.73;;;;;;;;;;6596772;28;20204;-96
2022/11/08 19:37:44;;;;;;;28.03;19.87;;;;;;;;;;6595106;28;20185;-96
2022/11/08 19:40:54;;;;;;;26.33;19.13;;;;;;;;;;6595368;28;20238;-96
2022/11/08 19:44:05;;;;;;;30.03;20.47;;;;;;;;;;6594395;28;20177;-96
2022/11/08 19:47:17;;;;;;;28.53;18.63;;;;;;;;;;6597661;28;20697;-94
2022/11/08 19:50:28;;;;;;;27.83;18.50;;;;;;;;;;6582250;28;20615;-96
2022/11/08 19:53:39;;;;;;;24.47;17.40;;;;;;;;;;6599130;28;20173;-95
2022/11/08 19:56:50;;;;;;;29.57;19.43;;;;;;;;;;6602999;28;20204;-95
2022/11/08 20:00:00;;;;;;;28.63;17.97;;;;;;;;;;6609072;28;20535;-95
2022/11/08 20:03:11;;;;;;;31.67;20.67;;;;;;;;;;6610118;28;20204;-96
2022/11/08 20:06:21;;;;;;;28.93;18.23;;;;;;;;;;6613024;28;20175;-96
2022/11/08 20:09:34;;;;;;;29.80;19.77;;;;;;;;;;6613084;28;20168;-95
2022/11/08 20:12:44;;;;;;;28.97;19.13;;;;;;;;;;6608056;28;20315;-96
2022/11/08 20:16:06;;;;;;;29.53;20.90;;;;;;;;;;6611925;28;20227;-96
2022/11/08 20:19:16;;;;;;;33.00;22.33;;;;;;;;;;6608730;28;20208;-96
2022/11/08 20:22:27;;;;;;;32.47;23.57;;;;;;;;;;6606181;28;20268;-96
2022/11/08 20:25:38;;;;;;;35.50;25.60;;;;;;;;;;6607589;28;20172;-96
2022/11/08 20:28:48;;;;;;;40.33;25.13;;;;;;;;;;6616050;28;20177;-96
2022/11/08 20:31:59;;;;;;;40.77;27.27;;;;;;;;;;6619662;28;20175;-96
2022/11/08 20:35:13;;;;;;;44.70;30.70;;;;;;;;;;6610818;28;20266;-96
2022/11/08 20:38:23;;;;;;;35.40;24.90;;;;;;;;;;6591151;28;20176;-96
2022/11/08 20:41:35;;;;;;;34.57;23.73;;;;;;;;;;6613498;28;20575;-96
2022/11/08 20:44:46;;;;;;;28.97;20.50;;;;;;;;;;6614688;28;20187;-96
2022/11/08 20:47:56;;;;;;;28.63;19.80;;;;;;;;;;6613649;28;20535;-96
2022/11/08 20:51:06;;;;;;;42.50;26.60;;;;;;;;;;6617284;28;20175;-96
2022/11/08 20:54:17;;;;;;;30.10;20.87;;;;;;;;;;6617248;28;20203;-96
2022/11/08 20:57:29;;;;;;;31.20;21.33;;;;;;;;;;6587937;28;20196;-96
2022/11/08 21:00:44;;;;;;;32.43;20.93;;;;;;;;;;6597544;28;20183;-96
2022/11/08 21:03:54;;;;;;;31.70;20.67;;;;;;;;;;6603695;28;20188;-96
2022/11/08 21:07:04;;;;;;;32.07;20.70;;;;;;;;;;6605329;28;20553;-96
2022/11/08 21:10:16;;;;;;;30.83;21.37;;;;;;;;;;6607016;28;20175;-96
2022/11/08 21:13:28;;;;;;;29.03;21.17;;;;;;;;;;6588966;28;20529;-96
2022/11/08 21:16:40;;;;;;;32.03;22.53;;;;;;;;;;6585862;28;20598;-96
2022/11/08 21:19:50;;;;;;;31.93;21.83;;;;;;;;;;6589404;28;20184;-96
2022/11/08 21:23:01;;;;;;;32.67;22.10;;;;;;;;;;6598141;28;20570;-96
2022/11/08 21:26:13;;;;;;;32.83;21.67;;;;;;;;;;6587315;28;20180;-96
2022/11/08 21:29:24;;;;;;;31.47;21.07;;;;;;;;;;6601635;28;20173;-96
2022/11/08 21:32:36;;;;;;;28.87;20.40;;;;;;;;;;6589418;28;20271;-96
2022/11/08 21:35:50;;;;;;;27.57;18.73;;;;;;;;;;6588915;28;20211;-96
2022/11/08 21:39:00;;;;;;;33.17;18.70;;;;;;;;;;6585461;28;20185;-96
2022/11/08 21:42:13;;;;;;;30.03;19.03;;;;;;;;;;6585455;28;20617;-96
2022/11/08 21:45:24;;;;;;;27.90;18.67;;;;;;;;;;6589841;28;20180;-96
2022/11/08 21:48:36;;;;;;;34.37;21.33;;;;;;;;;;6593531;28;20208;-96
2022/11/08 21:51:46;;;;;;;28.30;19.57;;;;;;;;;;6585008;28;20177;-96
2022/11/08 21:54:58;;;;;;;30.17;20.17;;;;;;;;;;6575412;28;20216;-96
2022/11/08 21:58:08;;;;;;;30.77;21.33;;;;;;;;;;6604639;28;20200;-96
2022/11/08 22:01:23;;;;;;;31.30;20.67;;;;;;;;;;6607442;28;20176;-96
2022/11/08 22:04:34;;;;;;;23.90;17.90;;;;;;;;;;6596910;28;20181;-96
2022/11/08 22:07:44;;;;;;;30.23;20.43;;;;;;;;;;6599957;28;20204;-96
2022/11/08 22:10:55;;;;;;;28.73;18.87;;;;;;;;;;6595936;28;20176;-96
2022/11/08 22:14:05;;;;;;;28.90;18.93;;;;;;;;;;6615349;28;20649;-96
2022/11/08 22:17:19;;;;;;;25.53;17.57;;;;;;;;;;6622815;28;20180;-96
2022/11/08 22:20:30;;;;;;;26.23;17.47;;;;;;;;;;6622325;28;20567;-96
2022/11/08 22:23:42;;;;;;;25.50;16.77;;;;;;;;;;6621340;28;20191;-96
2022/11/08 22:26:52;;;;;;;26.93;18.77;;;;;;;;;;6622358;28;20255;-96
2022/11/08 22:30:03;;;;;;;28.67;18.20;;;;;;;;;;6621527;28;20570;-96
2022/11/08 22:33:13;;;;;;;24.10;17.47;;;;;;;;;;6620596;28;20180;-96
2022/11/08 22:36:23;;;;;;;30.93;20.10;;;;;;;;;;6620571;28;20219;-96
2022/11/08 22:39:33;;;;;;;41.63;28.90;;;;;;;;;;6604294;28;20233;-96
2022/11/08 22:42:44;;;;;;;40.73;29.10;;;;;;;;;;6622339;28;20183;-96
2022/11/08 22:45:54;;;;;;;41.43;30.10;;;;;;;;;;6621223;28;20182;-96
2022/11/08 22:49:05;;;;;;;43.17;31.10;;;;;;;;;;6621285;28;20187;-96
2022/11/08 22:52:16;;;;;;;40.43;28.37;;;;;;;;;;6621141;28;20542;-96
2022/11/08 22:55:26;;;;;;;40.67;27.50;;;;;;;;;;6620684;28;20207;-96
2022/11/08 22:58:38;;;;;;;32.63;22.70;;;;;;;;;;6620935;28;20182;-96
2022/11/08 23:01:48;;;;;;;28.50;19.63;;;;;;;;;;6621727;28;20187;-96
2022/11/08 23:05:00;;;;;;;27.10;18.57;;;;;;;;;;6620935;28;20183;-96
2022/11/08 23:08:10;;;;;;;32.70;19.63;;;;;;;;;;6626046;28;20175;-96
2022/11/08 23:18:20;;;;;;;26.43;17.30;;;;;;;;;;6627032;28;20290;-96
2022/11/08 23:25:00;;;;;;;26.67;17.30;;;;;;;;;;6627561;28;20206;-96
2022/11/08 23:31:43;;;;;;;25.77;18.20;;;;;;;;;;6627008;28;20325;-96
2022/11/08 23:34:53;;;;;;;25.33;16.40;;;;;;;;;;6625220;28;20606;-96
2022/11/08 23:38:03;;;;;;;26.63;17.57;;;;;;;;;;6625259;28;20187;-96
2022/11/08 23:44:44;;;;;;;25.80;16.13;;;;;;;;;;6627091;28;20692;-96
2022/11/08 23:47:56;;;;;;;25.60;17.10;;;;;;;;;;6625614;28;20167;-96
2022/11/08 23:51:06;;;;;;;26.37;17.10;;;;;;;;;;6624892;28;20181;-96
2022/11/08 23:54:17;;;;;;;26.37;16.97;;;;;;;;;;6625054;28;20207;-96
2022/11/08 23:57:27;;;;;;;23.87;16.30;;;;;;;;;;6624727;28;20290;-96
